createdAt,value
2018-12-15T07:54:14.127Z,25.93
2018-12-15T07:56:42.358Z,27.03
2018-12-15T07:59:10.574Z,26.90
2018-12-15T08:01:38.819Z,26.37
2018-12-15T08:04:11.474Z,26.63
2018-12-15T08:06:39.819Z,24.23
2018-12-15T08:09:08.147Z,26.37
2018-12-15T08:11:41.700Z,27.03
2018-12-15T08:14:10.826Z,25.03
2018-12-15T08:16:39.227Z,26.00
2018-12-15T08:19:07.463Z,27.07
2018-12-15T08:21:35.783Z,27.10
2018-12-15T08:24:04.086Z,25.50
2018-12-15T08:26:32.406Z,27.03
2018-12-15T08:29:00.708Z,24.63
2018-12-15T08:31:28.946Z,31.73
2018-12-15T08:33:57.175Z,32.80
2018-12-15T08:36:25.498Z,29.23
2018-12-15T08:38:53.736Z,24.97
2018-12-15T08:41:21.969Z,26.53
2018-12-15T08:43:50.207Z,26.80
2018-12-15T08:46:18.483Z,24.90
2018-12-15T08:48:46.711Z,25.27
2018-12-15T08:51:15.232Z,26.37
2018-12-15T08:53:43.459Z,27.20
2018-12-15T08:56:11.695Z,28.10
2018-12-15T08:58:39.919Z,24.47
2018-12-15T09:01:08.170Z,26.50
2018-12-15T09:03:36.388Z,27.13
2018-12-15T09:06:04.683Z,25.70
2018-12-15T09:08:32.931Z,29.27
2018-12-15T09:11:01.228Z,27.10
2018-12-15T09:13:29.459Z,26.27
2018-12-15T09:15:57.670Z,26.70
2018-12-15T09:18:25.991Z,25.43
2018-12-15T09:20:54.224Z,27.57
2018-12-15T09:23:22.464Z,24.87
2018-12-15T09:25:50.683Z,27.13
2018-12-15T09:28:19.005Z,28.47
2018-12-15T09:30:47.219Z,26.03
2018-12-15T09:33:15.463Z,26.07
2018-12-15T09:35:43.674Z,28.70
2018-12-15T09:38:11.902Z,25.33
2018-12-15T09:40:40.118Z,25.87
2018-12-15T09:43:08.427Z,29.30
2018-12-15T09:45:36.647Z,27.00
2018-12-15T09:48:05.042Z,25.13
2018-12-15T09:50:33.555Z,25.17
2018-12-15T09:53:01.865Z,25.57
2018-12-15T09:55:30.087Z,27.20
2018-12-15T09:57:58.443Z,26.63
2018-12-15T10:00:26.657Z,25.70
2018-12-15T10:02:54.868Z,26.63
2018-12-15T10:05:23.267Z,25.90
2018-12-15T10:07:51.642Z,24.77
2018-12-15T10:10:19.885Z,24.57
2018-12-15T10:12:48.100Z,23.97
2018-12-15T10:15:16.342Z,24.20
2018-12-15T10:17:44.551Z,26.50
2018-12-15T10:20:12.871Z,24.87
2018-12-15T10:22:41.101Z,25.10
2018-12-15T10:25:09.334Z,26.37
2018-12-15T10:27:37.631Z,25.17
2018-12-15T10:30:11.803Z,26.27
2018-12-15T10:32:45.352Z,25.60
2018-12-15T10:35:13.692Z,26.50
2018-12-15T10:37:41.982Z,25.53
2018-12-15T10:40:10.300Z,25.57
2018-12-15T10:42:38.519Z,25.20
2018-12-15T10:45:06.914Z,26.40
2018-12-15T10:47:35.287Z,25.37
2018-12-15T10:50:03.967Z,25.70
2018-12-15T10:52:32.199Z,25.77
2018-12-15T10:55:00.515Z,25.43
2018-12-15T10:57:28.829Z,25.63
2018-12-15T10:59:57.055Z,25.10
2018-12-15T11:02:25.293Z,27.37
2018-12-15T11:04:53.531Z,26.50
2018-12-15T11:07:21.838Z,27.83
2018-12-15T11:09:50.083Z,28.00
2018-12-15T11:12:18.319Z,28.57
2018-12-15T11:14:46.560Z,29.53
2018-12-15T11:17:14.854Z,24.53
2018-12-15T11:19:43.101Z,23.77
2018-12-15T11:22:11.331Z,22.70
2018-12-15T11:24:39.569Z,23.27
2018-12-15T11:27:07.787Z,25.20
2018-12-15T11:29:36.036Z,25.50
2018-12-15T11:32:04.259Z,25.77
2018-12-15T11:34:32.478Z,25.40
2018-12-15T11:37:00.710Z,24.93
2018-12-15T11:39:28.931Z,26.03
2018-12-15T11:41:57.168Z,26.17
2018-12-15T11:44:25.386Z,26.97
2018-12-15T11:46:53.702Z,25.33
2018-12-15T11:49:21.920Z,24.70
2018-12-15T11:51:50.163Z,26.37
2018-12-15T11:54:18.455Z,26.37
2018-12-15T11:56:46.702Z,24.83
2018-12-15T11:59:14.938Z,23.33
2018-12-15T12:01:43.259Z,24.53
2018-12-15T12:04:11.488Z,23.73
2018-12-15T12:06:39.739Z,22.80
2018-12-15T12:09:07.960Z,22.97
2018-12-15T12:11:36.191Z,25.83
2018-12-15T12:14:04.486Z,23.60
2018-12-15T12:16:33.878Z,27.47
2018-12-15T12:19:02.171Z,23.67
2018-12-15T12:21:30.409Z,23.97
2018-12-15T12:23:58.651Z,24.03
2018-12-15T12:26:26.904Z,22.17
2018-12-15T12:28:55.118Z,23.10
2018-12-15T12:31:23.656Z,24.73
2018-12-15T12:33:51.952Z,23.77
2018-12-15T12:36:20.172Z,26.00
2018-12-15T12:38:48.407Z,23.97
2018-12-15T12:41:16.645Z,25.77
2018-12-15T12:43:44.963Z,27.60
2018-12-15T12:46:13.188Z,26.20
2018-12-15T12:48:41.419Z,26.77
2018-12-15T12:51:09.631Z,25.13
2018-12-15T12:53:37.859Z,25.23
2018-12-15T12:56:06.079Z,27.33
2018-12-15T12:58:34.412Z,25.33
2018-12-15T13:01:02.707Z,27.57
2018-12-15T13:03:30.944Z,26.17
2018-12-15T13:05:59.255Z,26.23
2018-12-15T13:08:27.591Z,25.37
2018-12-15T13:10:55.790Z,28.60
2018-12-15T13:13:24.111Z,26.83
2018-12-15T13:15:52.325Z,25.53
2018-12-15T13:18:20.562Z,27.57
2018-12-15T13:20:48.787Z,27.13
2018-12-15T13:23:17.037Z,28.47
2018-12-15T13:25:45.247Z,86.00
2018-12-15T13:28:13.493Z,50.73
2018-12-15T13:30:41.712Z,33.00
2018-12-15T13:33:21.196Z,25.73
2018-12-15T13:35:49.419Z,26.53
2018-12-15T13:38:17.731Z,29.93
2018-12-15T13:40:45.938Z,28.60
2018-12-15T13:43:14.183Z,27.87
2018-12-15T13:45:42.403Z,28.13
2018-12-15T13:48:10.790Z,29.50
2018-12-15T13:50:39.008Z,29.33
2018-12-15T13:53:07.320Z,28.77
2018-12-15T13:55:35.530Z,32.00
2018-12-15T13:58:03.860Z,29.40
2018-12-15T14:00:32.071Z,30.67
2018-12-15T14:03:00.287Z,29.87
2018-12-15T14:05:28.519Z,28.20
2018-12-15T14:07:56.746Z,31.00
2018-12-15T14:10:24.978Z,30.53
2018-12-15T14:12:53.188Z,34.00
2018-12-15T14:15:21.428Z,31.73
2018-12-15T14:17:49.638Z,32.87
2018-12-15T14:20:17.872Z,33.00
2018-12-15T14:22:46.095Z,35.57
2018-12-15T14:25:14.339Z,32.90
2018-12-15T14:27:42.559Z,33.50
2018-12-15T14:30:10.879Z,34.10
2018-12-15T14:32:39.087Z,33.33
2018-12-15T14:35:07.594Z,33.50
2018-12-15T14:37:35.803Z,34.60
2018-12-15T14:40:04.447Z,33.17
2018-12-15T14:42:32.671Z,35.40
2018-12-15T14:45:00.897Z,35.77
2018-12-15T14:47:29.124Z,34.60
2018-12-15T14:49:57.347Z,34.93
2018-12-15T14:52:25.562Z,40.43
2018-12-15T14:54:53.891Z,38.77
2018-12-15T14:57:25.159Z,38.70
2018-12-15T14:59:53.734Z,34.27
2018-12-15T15:02:21.983Z,37.03
2018-12-15T15:04:50.371Z,34.87
2018-12-15T15:07:18.603Z,38.63
2018-12-15T15:09:46.855Z,41.33
2018-12-15T15:12:15.078Z,35.93
2018-12-15T15:14:43.336Z,37.10
2018-12-15T15:17:11.583Z,36.67
2018-12-15T15:19:39.798Z,36.90
2018-12-15T15:22:08.104Z,37.57
2018-12-15T15:24:36.316Z,35.03
2018-12-15T15:27:04.556Z,36.37
2018-12-15T15:29:32.884Z,37.13
2018-12-15T15:32:01.115Z,38.30
2018-12-15T15:34:29.335Z,34.60
2018-12-15T15:36:57.571Z,35.27
2018-12-15T15:39:25.791Z,38.97
2018-12-15T15:41:54.028Z,38.00
2018-12-15T15:44:22.244Z,36.20
2018-12-15T15:46:50.548Z,37.10
2018-12-15T15:49:18.843Z,35.43
2018-12-15T15:51:47.155Z,37.37
2018-12-15T15:54:15.810Z,37.67
2018-12-15T15:56:44.039Z,38.37
2018-12-15T15:59:12.278Z,37.80
2018-12-15T16:01:40.671Z,38.70
2018-12-15T16:04:08.880Z,38.90
2018-12-15T16:06:37.240Z,37.70
2018-12-15T16:09:08.831Z,39.00
2018-12-15T16:11:37.354Z,39.33
2018-12-15T16:14:05.568Z,35.93
2018-12-15T16:16:34.751Z,37.13
2018-12-15T16:19:03.300Z,40.47
2018-12-15T16:21:31.542Z,41.20
2018-12-15T16:23:59.833Z,41.53
2018-12-15T16:26:28.065Z,42.07
2018-12-15T16:28:56.342Z,41.00
2018-12-15T16:31:24.882Z,40.10
2018-12-15T16:33:53.178Z,39.37
2018-12-15T16:36:21.404Z,38.13
2018-12-15T16:38:49.647Z,39.13
2018-12-15T16:41:17.895Z,39.33
2018-12-15T16:43:46.116Z,38.37
2018-12-15T16:46:14.359Z,38.87
2018-12-15T16:48:42.575Z,42.03
2018-12-15T16:51:10.794Z,41.53
2018-12-15T16:53:39.104Z,41.97
2018-12-15T16:56:07.398Z,43.30
2018-12-15T16:58:35.653Z,42.17
2018-12-15T17:01:04.119Z,41.03
2018-12-15T17:03:32.345Z,41.07
2018-12-15T17:06:00.644Z,43.67
2018-12-15T17:08:28.895Z,40.77
2018-12-15T17:10:57.200Z,38.73
2018-12-15T17:13:25.511Z,39.20
2018-12-15T17:15:53.790Z,42.37
2018-12-15T17:18:22.099Z,43.70
2018-12-15T17:20:56.462Z,44.77
2018-12-15T17:23:20.651Z,41.07
2018-12-15T17:25:48.955Z,40.10
2018-12-15T17:28:17.190Z,42.20
2018-12-15T17:30:45.410Z,43.33
2018-12-15T17:33:13.651Z,40.07
2018-12-15T17:35:41.875Z,47.17
2018-12-15T17:38:10.117Z,43.17
2018-12-15T17:40:38.416Z,41.40
2018-12-15T17:43:06.656Z,41.63
2018-12-15T17:45:35.030Z,41.47
2018-12-15T17:48:03.334Z,43.77
2018-12-15T17:50:31.631Z,44.03
2018-12-15T17:53:00.037Z,44.27
2018-12-15T17:55:28.238Z,42.27
2018-12-15T17:57:56.502Z,43.33
2018-12-15T18:00:24.908Z,43.27
2018-12-15T18:02:53.135Z,43.30
2018-12-15T18:05:21.363Z,44.73
2018-12-15T18:07:49.618Z,44.30
2018-12-15T18:10:17.918Z,51.43
2018-12-15T18:12:46.154Z,54.10
2018-12-15T18:15:14.379Z,48.03
2018-12-15T18:17:42.623Z,44.90
2018-12-15T18:20:10.947Z,46.90
2018-12-15T18:22:39.185Z,43.30
2018-12-15T18:25:07.801Z,43.87
2018-12-15T18:27:36.051Z,45.77
2018-12-15T18:30:05.699Z,44.67
2018-12-15T18:32:33.938Z,49.80
2018-12-15T18:35:02.168Z,50.90
2018-12-15T18:37:30.406Z,52.33
2018-12-15T18:39:58.639Z,53.93
2018-12-15T18:42:26.955Z,48.50
2018-12-15T18:44:55.194Z,48.07
2018-12-15T18:47:23.413Z,44.43
2018-12-15T18:49:51.650Z,45.43
2018-12-15T18:52:19.880Z,44.80
2018-12-15T18:57:22.567Z,43.00
2018-12-15T18:59:50.807Z,44.07
2018-12-15T19:02:19.201Z,44.53
2018-12-15T19:04:47.518Z,41.80
2018-12-15T19:07:15.765Z,44.53
2018-12-15T19:09:44.004Z,43.87
2018-12-15T19:12:12.222Z,45.33
2018-12-15T19:14:40.546Z,43.23
2018-12-15T19:17:08.948Z,47.43
2018-12-15T19:19:37.187Z,45.23
2018-12-15T19:22:05.406Z,45.53
2018-12-15T19:24:33.651Z,44.97
2018-12-15T19:27:01.965Z,44.23
2018-12-15T19:29:30.279Z,43.77
2018-12-15T19:31:58.490Z,44.30
2018-12-15T19:34:26.718Z,44.10
2018-12-15T19:36:54.927Z,45.53
2018-12-15T19:39:23.535Z,46.07
2018-12-15T19:41:51.747Z,45.03
2018-12-15T19:44:19.978Z,46.03
2018-12-15T19:46:48.195Z,45.00
2018-12-15T19:49:16.427Z,45.30
2018-12-15T19:51:44.646Z,45.53
2018-12-15T19:54:12.874Z,46.60
2018-12-15T19:56:41.094Z,44.37
2018-12-15T19:59:13.571Z,43.47
2018-12-15T20:01:42.202Z,46.37
2018-12-15T20:04:10.433Z,43.83
2018-12-15T20:06:38.773Z,47.93
2018-12-15T20:09:09.699Z,43.00
2018-12-15T20:11:38.219Z,47.80
2018-12-15T20:14:06.463Z,45.57
2018-12-15T20:16:34.754Z,44.10
2018-12-15T20:19:03.062Z,49.40
2018-12-15T20:21:35.945Z,45.77
2018-12-15T20:24:01.534Z,47.07
2018-12-15T20:26:29.745Z,47.33
2018-12-15T20:28:58.068Z,46.10
2018-12-15T20:31:26.278Z,46.83
2018-12-15T20:33:54.518Z,47.23
2018-12-15T20:36:22.728Z,44.97
2018-12-15T20:38:50.964Z,46.97
2018-12-15T20:41:19.333Z,45.73
2018-12-15T20:43:47.636Z,47.70
2018-12-15T20:46:15.885Z,46.93
2018-12-15T20:48:44.189Z,45.93
2018-12-15T20:51:12.500Z,44.70
2018-12-15T20:53:40.713Z,44.67
2018-12-15T20:56:09.023Z,45.63
2018-12-15T20:58:37.348Z,44.73
2018-12-15T21:01:05.667Z,45.27
2018-12-15T21:03:33.895Z,45.43
2018-12-15T21:06:02.132Z,44.37
2018-12-15T21:08:30.442Z,48.37
2018-12-15T21:10:58.670Z,44.10
2018-12-15T21:13:26.959Z,45.67
2018-12-15T21:15:57.647Z,44.47
2018-12-15T21:18:26.312Z,45.07
2018-12-15T21:20:54.639Z,43.80
